createdAt,value
2023-02-27T00:02:26.178Z,40.45
2023-02-27T00:04:54.711Z,40.21
2023-02-27T00:07:26.454Z,40.30
2023-02-27T00:09:53.352Z,40.34
2023-02-27T00:12:20.302Z,39.98
2023-02-27T00:14:46.723Z,40.28
2023-02-27T00:17:13.019Z,40.53
2023-02-27T00:19:39.403Z,40.70
2023-02-27T00:22:06.023Z,40.56
2023-02-27T00:24:32.424Z,40.44
2023-02-27T00:26:59.110Z,40.60
2023-02-27T00:29:25.573Z,40.63
2023-02-27T00:31:52.039Z,40.41
2023-02-27T00:34:18.610Z,40.72
2023-02-27T00:36:44.968Z,40.33
2023-02-27T00:39:11.442Z,40.56
2023-02-27T00:41:37.773Z,40.68
2023-02-27T00:44:04.492Z,40.67
2023-02-27T00:46:30.953Z,40.95
2023-02-27T00:48:57.295Z,41.08
2023-02-27T00:51:23.855Z,41.13
2023-02-27T00:53:50.344Z,41.02
2023-02-27T00:56:16.695Z,41.04
2023-02-27T00:58:43.054Z,40.96
2023-02-27T01:01:09.507Z,41.30
2023-02-27T01:03:36.025Z,41.28
2023-02-27T01:06:02.625Z,41.45
2023-02-27T01:08:30.246Z,41.44
2023-02-27T01:10:57.225Z,41.20
2023-02-27T01:13:24.286Z,41.14
2023-02-27T01:15:51.491Z,41.51
2023-02-27T01:18:18.380Z,41.22
2023-02-27T01:20:44.826Z,41.48
2023-02-27T01:23:11.289Z,41.29
2023-02-27T01:25:37.787Z,41.58
2023-02-27T01:28:04.508Z,41.34
2023-02-27T01:30:31.147Z,41.68
2023-02-27T01:32:57.789Z,41.18
2023-02-27T01:35:24.245Z,41.47
2023-02-27T01:37:50.948Z,41.34
2023-02-27T01:40:17.688Z,41.29
2023-02-27T01:42:44.157Z,41.41
2023-02-27T01:45:32.469Z,41.95
2023-02-27T01:48:06.702Z,41.50
2023-02-27T01:50:35.265Z,41.73
2023-02-27T01:53:03.419Z,41.47
2023-02-27T01:55:33.422Z,41.67
2023-02-27T01:58:00.462Z,41.62
2023-02-27T02:00:27.426Z,41.56
2023-02-27T02:03:07.039Z,42.08
2023-02-27T02:05:34.168Z,41.57
2023-02-27T02:08:01.597Z,42.11
2023-02-27T02:10:29.590Z,42.14
2023-02-27T02:12:56.394Z,41.96
2023-02-27T02:15:29.435Z,42.29
2023-02-27T02:18:19.363Z,42.79
2023-02-27T02:21:00.704Z,43.00
2023-02-27T02:24:07.412Z,42.81
2023-02-27T02:26:43.610Z,42.74
2023-02-27T02:29:43.837Z,42.52
2023-02-27T02:32:28.662Z,42.26
2023-02-27T02:35:12.534Z,42.62
2023-02-27T02:37:44.845Z,42.38
2023-02-27T02:40:30.114Z,42.52
2023-02-27T02:43:13.710Z,43.17
2023-02-27T02:46:02.969Z,42.94
2023-02-27T02:48:41.971Z,42.67
2023-02-27T02:51:22.592Z,42.88
2023-02-27T02:53:59.770Z,42.63
2023-02-27T02:56:30.016Z,41.91
2023-02-27T02:59:23.282Z,42.73
2023-02-27T03:02:07.999Z,42.92
2023-02-27T03:04:43.280Z,42.71
2023-02-27T03:07:16.925Z,42.89
2023-02-27T03:09:49.124Z,42.77
2023-02-27T03:12:23.778Z,42.63
2023-02-27T03:15:08.783Z,42.89
2023-02-27T03:17:52.737Z,43.25
2023-02-27T03:20:25.277Z,42.80
2023-02-27T03:22:57.318Z,42.80
2023-02-27T03:25:27.075Z,43.01
2023-02-27T03:27:58.585Z,43.27
2023-02-27T03:30:35.126Z,43.75
2023-02-27T03:33:17.228Z,43.15
2023-02-27T03:35:52.179Z,43.08
2023-02-27T03:38:28.401Z,43.40
2023-02-27T03:41:12.801Z,43.91
2023-02-27T03:44:10.395Z,44.04
2023-02-27T03:46:37.230Z,42.65
2023-02-27T03:49:04.431Z,43.37
2023-02-27T03:51:31.907Z,43.19
2023-02-27T03:54:13.457Z,43.58
2023-02-27T03:56:59.185Z,43.84
2023-02-27T03:59:26.342Z,43.43
2023-02-27T04:01:55.049Z,43.10
2023-02-27T04:04:22.516Z,43.57
2023-02-27T04:07:14.250Z,43.74
2023-02-27T04:10:08.865Z,43.98
2023-02-27T04:12:38.151Z,43.39
2023-02-27T04:15:34.355Z,43.76
2023-02-27T04:18:22.116Z,43.22
2023-02-27T04:20:57.063Z,43.78
2023-02-27T04:23:34.448Z,43.46
2023-02-27T04:26:31.594Z,43.75
2023-02-27T04:29:09.733Z,43.59
2023-02-27T04:31:47.066Z,43.42
2023-02-27T04:34:38.873Z,43.80
2023-02-27T04:37:13.073Z,43.56
2023-02-27T04:39:51.917Z,43.97
2023-02-27T04:42:24.154Z,43.51
2023-02-27T04:44:54.526Z,43.57
2023-02-27T04:47:24.463Z,43.61
2023-02-27T04:50:04.336Z,44.04
2023-02-27T04:52:38.177Z,43.96
2023-02-27T04:55:20.172Z,44.30
2023-02-27T04:57:53.664Z,43.78
2023-02-27T05:00:23.251Z,43.61
2023-02-27T05:02:55.008Z,43.74
2023-02-27T05:05:26.955Z,43.54
2023-02-27T05:08:01.303Z,43.85
2023-02-27T05:10:40.434Z,44.14
2023-02-27T05:13:13.453Z,44.20
2023-02-27T05:16:03.813Z,44.12
2023-02-27T05:18:30.855Z,43.91
2023-02-27T05:21:22.181Z,44.28
2023-02-27T05:24:18.709Z,43.98
2023-02-27T05:27:09.811Z,44.97
2023-02-27T05:29:45.703Z,44.13
2023-02-27T05:32:24.433Z,43.58
2023-02-27T05:35:30.269Z,44.43
2023-02-27T05:38:25.506Z,44.49
2023-02-27T05:41:09.260Z,44.41
2023-02-27T05:43:41.304Z,43.96
2023-02-27T05:46:13.593Z,44.25
2023-02-27T05:48:46.461Z,44.11
2023-02-27T05:51:16.873Z,44.34
2023-02-27T05:53:50.982Z,44.44
2023-02-27T05:56:21.505Z,44.58
2023-02-27T05:59:06.977Z,45.14
2023-02-27T06:01:33.728Z,44.30
2023-02-27T06:04:00.176Z,44.49
2023-02-27T06:06:27.098Z,44.25
2023-02-27T06:08:53.627Z,44.55
2023-02-27T06:11:19.952Z,44.41
2023-02-27T06:13:46.324Z,44.41
2023-02-27T06:16:14.825Z,44.68
2023-02-27T06:18:41.283Z,44.55
2023-02-27T06:21:08.174Z,44.33
2023-02-27T06:23:34.562Z,44.73
2023-02-27T06:26:00.995Z,44.88
2023-02-27T06:28:27.760Z,44.67
2023-02-27T06:30:57.067Z,45.00
2023-02-27T06:33:26.135Z,44.75
2023-02-27T06:35:53.113Z,45.00
2023-02-27T06:38:19.673Z,44.56
2023-02-27T06:40:46.097Z,44.96
2023-02-27T06:43:12.625Z,44.86
2023-02-27T06:45:39.061Z,45.27
2023-02-27T06:48:05.771Z,44.96
2023-02-27T06:50:32.824Z,44.58
2023-02-27T06:52:59.404Z,44.73
2023-02-27T06:55:25.836Z,44.75
2023-02-27T06:57:52.319Z,44.83
2023-02-27T07:00:19.144Z,44.52
2023-02-27T07:02:45.584Z,44.68
2023-02-27T07:05:12.113Z,44.61
2023-02-27T07:07:39.561Z,44.58
2023-02-27T07:10:11.821Z,44.88
2023-02-27T07:12:39.575Z,44.98
2023-02-27T07:15:07.123Z,44.98
2023-02-27T07:17:33.703Z,45.21
2023-02-27T07:20:00.114Z,44.71
2023-02-27T07:22:27.042Z,44.73
2023-02-27T07:24:53.596Z,44.99
2023-02-27T07:27:20.161Z,45.29
2023-02-27T07:29:46.530Z,45.24
2023-02-27T07:32:13.094Z,45.00
2023-02-27T07:34:39.558Z,45.13
2023-02-27T07:37:05.910Z,44.80
2023-02-27T07:39:32.527Z,45.25
2023-02-27T07:41:58.968Z,45.31
2023-02-27T07:44:25.382Z,44.81
2023-02-27T07:46:55.009Z,44.74
2023-02-27T07:49:21.366Z,44.86
2023-02-27T07:51:48.122Z,44.89
2023-02-27T07:54:14.591Z,44.94
2023-02-27T07:56:40.975Z,44.82
2023-02-27T07:59:08.484Z,44.67
2023-02-27T08:01:34.851Z,44.40
2023-02-27T08:04:01.728Z,44.58
2023-02-27T08:06:28.693Z,44.65
2023-02-27T08:08:55.275Z,44.53
2023-02-27T08:11:21.738Z,44.66
2023-02-27T08:14:00.034Z,44.51
2023-02-27T08:16:28.072Z,44.42
2023-02-27T08:18:54.629Z,44.24
2023-02-27T08:21:21.056Z,44.83
2023-02-27T08:23:47.526Z,44.60
2023-02-27T08:26:14.042Z,44.42
2023-02-27T08:28:40.795Z,44.60
2023-02-27T08:31:07.161Z,44.42
2023-02-27T08:33:34.202Z,44.29
2023-02-27T08:36:02.075Z,44.19
2023-02-27T08:38:28.447Z,43.90
2023-02-27T08:40:54.793Z,44.17
2023-02-27T08:43:22.280Z,44.30
2023-02-27T08:45:50.176Z,44.17
2023-02-27T08:48:18.548Z,44.06
2023-02-27T08:50:45.785Z,44.47
2023-02-27T08:53:13.059Z,43.93
2023-02-27T08:55:39.426Z,44.52
2023-02-27T08:58:06.320Z,44.38
2023-02-27T09:00:32.916Z,44.23
2023-02-27T09:03:01.536Z,44.09
2023-02-27T09:05:28.877Z,43.92
2023-02-27T09:07:55.515Z,43.93
2023-02-27T09:10:22.592Z,43.85
2023-02-27T09:12:49.234Z,43.95
2023-02-27T09:15:16.137Z,43.90
2023-02-27T09:17:42.611Z,43.95
2023-02-27T09:20:10.684Z,43.76
2023-02-27T09:22:37.745Z,43.82
2023-02-27T09:25:05.320Z,43.95
2023-02-27T09:27:31.684Z,43.76
2023-02-27T09:29:59.428Z,43.49
2023-02-27T09:32:26.320Z,43.56
2023-02-27T09:34:56.468Z,43.64
2023-02-27T09:37:36.480Z,43.35
2023-02-27T09:40:05.823Z,43.76
2023-02-27T09:42:46.881Z,43.05
2023-02-27T09:45:23.519Z,42.82
2023-02-27T09:47:55.680Z,43.29
2023-02-27T09:50:34.094Z,42.36
2023-02-27T09:53:00.740Z,42.76
2023-02-27T09:55:34.897Z,42.86
2023-02-27T09:58:12.953Z,43.13
2023-02-27T10:00:57.571Z,42.14
2023-02-27T10:03:43.385Z,41.79
2023-02-27T10:06:27.217Z,40.87
2023-02-27T10:09:09.106Z,41.38
2023-02-27T10:11:51.729Z,41.44
2023-02-27T10:14:53.819Z,40.88
2023-02-27T10:17:26.367Z,41.53
2023-02-27T10:19:54.624Z,42.18
2023-02-27T10:22:27.053Z,41.72
2023-02-27T10:25:00.791Z,41.46
2023-02-27T10:27:27.350Z,41.54
2023-02-27T10:30:05.780Z,41.71
2023-02-27T10:32:35.720Z,41.81
2023-02-27T10:35:15.001Z,41.22
2023-02-27T10:37:48.146Z,41.30
2023-02-27T10:40:16.471Z,41.36
2023-02-27T10:42:43.379Z,41.12
2023-02-27T10:45:16.048Z,40.01
2023-02-27T10:47:43.144Z,40.57
2023-02-27T10:50:31.079Z,39.62
2023-02-27T10:53:00.427Z,40.20
2023-02-27T10:55:30.059Z,40.24
2023-02-27T10:57:58.370Z,39.65
2023-02-27T11:00:49.705Z,39.57
2023-02-27T11:03:22.891Z,39.56
2023-02-27T11:06:17.529Z,39.03
2023-02-27T11:08:43.987Z,39.72
2023-02-27T11:11:12.092Z,39.72
2023-02-27T11:13:41.642Z,39.47
2023-02-27T11:16:21.810Z,39.46
2023-02-27T11:18:51.127Z,39.69
2023-02-27T11:21:20.339Z,39.43
2023-02-27T11:23:57.355Z,38.64
2023-02-27T11:26:54.314Z,39.22
2023-02-27T11:29:21.771Z,38.94
2023-02-27T11:31:55.094Z,38.73
2023-02-27T11:34:28.419Z,38.55
2023-02-27T11:37:02.162Z,39.24
2023-02-27T11:39:47.647Z,38.28
2023-02-27T11:42:48.364Z,37.97
2023-02-27T11:46:19.453Z,37.60
2023-02-27T11:48:18.062Z,38.56
2023-02-27T11:50:56.826Z,38.35
2023-02-27T11:53:34.629Z,39.61
2023-02-27T11:56:04.070Z,37.88
2023-02-27T11:58:44.472Z,37.71
2023-02-27T12:01:30.969Z,38.42
2023-02-27T12:04:13.724Z,37.85
2023-02-27T12:06:45.432Z,37.81
2023-02-27T12:10:01.374Z,37.96
2023-02-27T12:12:51.119Z,37.18
2023-02-27T12:15:32.833Z,37.49
2023-02-27T12:18:20.617Z,37.71
2023-02-27T12:20:47.059Z,37.19
2023-02-27T12:23:29.496Z,36.11
2023-02-27T12:26:13.653Z,36.44
2023-02-27T12:28:53.923Z,36.85
2023-02-27T12:31:32.584Z,36.94
2023-02-27T12:34:07.114Z,36.71
2023-02-27T12:36:33.539Z,37.35
2023-02-27T12:39:00.136Z,37.05
2023-02-27T12:42:05.952Z,36.25
2023-02-27T12:44:50.751Z,37.04
2023-02-27T12:47:52.763Z,36.77
2023-02-27T12:50:22.947Z,36.50
2023-02-27T12:53:13.386Z,36.12
2023-02-27T12:55:48.946Z,36.31
2023-02-27T12:58:27.484Z,36.43
2023-02-27T13:01:02.225Z,37.42
2023-02-27T13:03:42.206Z,36.43
2023-02-27T13:06:21.012Z,36.34
2023-02-27T13:09:15.260Z,36.89
2023-02-27T13:11:56.991Z,37.37
2023-02-27T13:14:46.960Z,36.09
2023-02-27T13:17:36.389Z,34.93
2023-02-27T13:20:21.282Z,35.66
2023-02-27T13:23:15.939Z,35.64
2023-02-27T13:25:47.790Z,36.12
2023-02-27T13:28:18.517Z,36.04
2023-02-27T13:31:04.239Z,35.68
2023-02-27T13:33:42.537Z,35.33
2023-02-27T13:36:25.511Z,36.05
2023-02-27T13:38:54.789Z,35.56
2023-02-27T13:41:23.494Z,35.97
2023-02-27T13:44:19.998Z,36.13
2023-02-27T13:46:47.114Z,36.04
2023-02-27T13:49:29.645Z,34.79
2023-02-27T13:51:59.904Z,35.79
2023-02-27T13:54:33.615Z,34.97
2023-02-27T13:57:19.039Z,35.33
2023-02-27T13:59:57.322Z,34.92
2023-02-27T14:02:56.763Z,35.65
2023-02-27T14:05:43.530Z,35.49
2023-02-27T14:08:19.598Z,35.76
2023-02-27T14:11:10.146Z,34.73
2023-02-27T14:13:49.399Z,34.19
2023-02-27T14:16:37.776Z,34.60
2023-02-27T14:19:24.168Z,34.67
2023-02-27T14:22:01.489Z,34.38
2023-02-27T14:24:44.854Z,34.74
2023-02-27T14:27:22.993Z,35.86
2023-02-27T14:29:52.709Z,34.93
2023-02-27T14:32:25.628Z,34.76
2023-02-27T14:34:55.824Z,34.92
2023-02-27T14:37:25.759Z,35.07
2023-02-27T14:39:54.486Z,35.16
2023-02-27T14:42:30.351Z,34.99
2023-02-27T14:44:57.008Z,35.27
2023-02-27T14:47:32.435Z,34.52
2023-02-27T14:49:59.354Z,34.76
2023-02-27T14:52:31.461Z,34.58
2023-02-27T14:55:19.157Z,34.39
2023-02-27T14:58:13.043Z,34.09
2023-02-27T15:00:50.525Z,33.78
2023-02-27T15:03:22.758Z,33.49
2023-02-27T15:05:54.824Z,33.76
2023-02-27T15:08:28.819Z,34.07
2023-02-27T15:10:59.942Z,34.35
2023-02-27T15:13:35.791Z,34.02
2023-02-27T15:16:24.451Z,33.92
2023-02-27T15:18:57.721Z,34.55
2023-02-27T15:21:26.868Z,34.19
2023-02-27T15:23:55.767Z,34.03
2023-02-27T15:26:25.492Z,34.58
2023-02-27T15:28:52.746Z,34.54
2023-02-27T15:31:22.395Z,34.54
2023-02-27T15:33:50.139Z,34.32
2023-02-27T15:36:26.351Z,33.45
2023-02-27T15:39:17.455Z,33.91
2023-02-27T15:41:51.522Z,34.10
2023-02-27T15:44:23.581Z,34.17
2023-02-27T15:46:51.005Z,34.30
2023-02-27T15:49:21.236Z,33.65
2023-02-27T15:52:01.836Z,33.75
2023-02-27T15:54:36.799Z,33.40
2023-02-27T15:57:05.117Z,33.72
2023-02-27T15:59:37.173Z,33.80
2023-02-27T16:02:05.990Z,34.13
2023-02-27T16:04:34.606Z,34.01
2023-02-27T16:07:05.736Z,34.08
2023-02-27T16:09:36.419Z,33.96
2023-02-27T16:12:24.156Z,33.48
2023-02-27T16:14:55.756Z,34.02
2023-02-27T16:17:28.949Z,33.90
2023-02-27T16:19:57.243Z,34.10
2023-02-27T16:22:24.518Z,34.39
2023-02-27T16:24:51.770Z,34.33
2023-02-27T16:27:26.984Z,34.14
2023-02-27T16:29:55.985Z,34.21
2023-02-27T16:32:26.592Z,34.45
2023-02-27T16:35:02.180Z,34.53
2023-02-27T16:37:38.271Z,34.40
2023-02-27T16:40:19.498Z,34.29
2023-02-27T16:42:46.670Z,34.60
2023-02-27T16:45:22.396Z,34.05
2023-02-27T16:47:50.805Z,34.22
2023-02-27T16:50:27.871Z,34.58
2023-02-27T16:52:54.625Z,34.41
2023-02-27T16:55:21.309Z,34.64
2023-02-27T16:57:47.900Z,34.66
2023-02-27T17:00:16.356Z,34.34
2023-02-27T17:02:43.126Z,35.04
2023-02-27T17:05:10.814Z,34.07
2023-02-27T17:07:38.636Z,34.57
2023-02-27T17:10:05.321Z,34.85
2023-02-27T17:12:31.968Z,34.98
2023-02-27T17:14:58.331Z,35.15
2023-02-27T17:17:24.885Z,35.55
2023-02-27T17:19:52.560Z,35.04
2023-02-27T17:22:18.979Z,35.61
2023-02-27T17:24:45.451Z,35.59
2023-02-27T17:27:11.859Z,35.27
2023-02-27T17:29:39.057Z,35.22
2023-02-27T17:32:06.657Z,35.57
2023-02-27T17:34:33.347Z,35.88
2023-02-27T17:36:59.780Z,36.08
2023-02-27T17:39:26.358Z,35.87
2023-02-27T17:41:54.504Z,35.41
2023-02-27T17:44:21.441Z,35.70
2023-02-27T17:46:47.967Z,35.41
2023-02-27T17:49:16.372Z,35.88
2023-02-27T17:51:44.183Z,35.61
2023-02-27T17:54:10.904Z,36.07
2023-02-27T17:56:38.585Z,35.89
2023-02-27T17:59:11.142Z,35.84
2023-02-27T18:01:40.284Z,36.19
2023-02-27T18:04:10.894Z,35.59
2023-02-27T18:06:37.895Z,36.39
2023-02-27T18:09:05.846Z,36.04
2023-02-27T18:11:32.380Z,36.30
2023-02-27T18:13:59.318Z,36.39
2023-02-27T18:16:26.172Z,35.99
2023-02-27T18:18:52.621Z,35.85
2023-02-27T18:21:23.614Z,36.40
2023-02-27T18:23:54.871Z,36.52
2023-02-27T18:26:32.871Z,36.08
2023-02-27T18:29:02.207Z,36.19
2023-02-27T18:31:32.223Z,36.32
2023-02-27T18:33:58.987Z,36.76
2023-02-27T18:36:25.356Z,36.64
2023-02-27T18:38:51.700Z,36.43
2023-02-27T18:41:18.090Z,37.04
2023-02-27T18:43:44.972Z,37.01
2023-02-27T18:46:16.513Z,36.66
2023-02-27T18:48:44.543Z,37.08
2023-02-27T18:51:14.447Z,36.58
2023-02-27T18:53:46.991Z,36.69
2023-02-27T18:56:17.530Z,37.06
2023-02-27T18:58:44.473Z,36.49
2023-02-27T19:01:31.950Z,36.72
2023-02-27T19:04:03.423Z,37.14
2023-02-27T19:06:32.229Z,36.79
2023-02-27T19:08:58.864Z,36.68
2023-02-27T19:11:29.443Z,36.49
2023-02-27T19:13:59.930Z,36.94
2023-02-27T19:16:27.421Z,36.55
2023-02-27T19:18:56.029Z,36.35
2023-02-27T19:21:22.705Z,37.08
2023-02-27T19:23:49.122Z,36.49
2023-02-27T19:26:16.539Z,36.43
2023-02-27T19:28:44.155Z,36.88
2023-02-27T19:31:14.260Z,36.97
2023-02-27T19:33:41.131Z,37.04
2023-02-27T19:36:10.836Z,36.56
2023-02-27T19:38:37.819Z,36.16
2023-02-27T19:41:06.572Z,36.93
2023-02-27T19:43:38.634Z,36.19
2023-02-27T19:46:10.479Z,36.75
2023-02-27T19:48:37.157Z,36.75
2023-02-27T19:51:05.521Z,36.12
2023-02-27T19:53:33.746Z,36.49
2023-02-27T19:56:01.601Z,36.86
2023-02-27T19:58:29.768Z,37.22
2023-02-27T20:00:56.479Z,36.98
2023-02-27T20:03:23.682Z,36.32
2023-02-27T20:05:50.533Z,37.49
2023-02-27T20:08:17.563Z,36.76
2023-02-27T20:10:56.121Z,36.65
2023-02-27T20:13:23.360Z,37.14
2023-02-27T20:16:04.225Z,36.88
2023-02-27T20:18:32.018Z,37.49
2023-02-27T20:21:07.784Z,37.66
2023-02-27T20:23:37.836Z,37.21
2023-02-27T20:26:20.199Z,37.53
2023-02-27T20:28:49.727Z,37.43
2023-02-27T20:31:21.091Z,37.32
2023-02-27T20:33:49.899Z,38.01
2023-02-27T20:36:17.013Z,37.69
2023-02-27T20:38:44.221Z,37.63
2023-02-27T20:41:14.499Z,37.62
2023-02-27T20:43:43.126Z,38.02
2023-02-27T20:46:16.257Z,37.44
2023-02-27T20:48:43.277Z,37.94
2023-02-27T20:51:13.802Z,37.66
2023-02-27T20:53:43.175Z,38.05
2023-02-27T20:56:11.902Z,37.70
2023-02-27T20:58:39.130Z,37.71
2023-02-27T21:01:13.211Z,38.31
2023-02-27T21:03:42.982Z,38.15
2023-02-27T21:06:11.379Z,38.24
2023-02-27T21:08:39.546Z,38.48
2023-02-27T21:11:11.373Z,37.98
2023-02-27T21:13:38.201Z,38.23
2023-02-27T21:16:07.391Z,38.54
2023-02-27T21:18:34.146Z,38.57
2023-02-27T21:21:09.462Z,39.01
2023-02-27T21:23:43.930Z,38.96
2023-02-27T21:26:33.322Z,39.14
2023-02-27T21:29:15.264Z,39.11
2023-02-27T21:31:45.159Z,39.00
2023-02-27T21:34:14.959Z,38.97
2023-02-27T21:36:43.399Z,39.26
2023-02-27T21:39:13.223Z,39.29
2023-02-27T21:41:40.261Z,38.92
2023-02-27T21:44:08.096Z,38.90
2023-02-27T21:46:36.403Z,39.11
2023-02-27T21:49:04.003Z,39.18
2023-02-27T21:51:39.914Z,39.36
2023-02-27T21:54:09.681Z,39.32
2023-02-27T21:56:36.565Z,39.58
2023-02-27T21:59:04.152Z,39.62
2023-02-27T22:01:31.573Z,39.47
2023-02-27T22:03:58.518Z,39.07
2023-02-27T22:06:27.607Z,39.28
2023-02-27T22:08:55.751Z,39.35
2023-02-27T22:11:23.894Z,39.14
2023-02-27T22:13:50.764Z,39.42
2023-02-27T22:16:17.693Z,39.15
2023-02-27T22:18:44.574Z,39.35
2023-02-27T22:21:18.148Z,39.81
2023-02-27T22:23:46.420Z,39.35
2023-02-27T22:26:18.292Z,39.43
2023-02-27T22:28:44.805Z,39.36
2023-02-27T22:31:19.478Z,39.31
2023-02-27T22:33:48.683Z,39.40
2023-02-27T22:36:18.426Z,39.40
2023-02-27T22:38:44.997Z,39.32
2023-02-27T22:41:14.250Z,39.85
2023-02-27T22:43:42.033Z,39.41
2023-02-27T22:46:09.831Z,39.17
2023-02-27T22:48:38.659Z,39.37
2023-02-27T22:51:09.058Z,39.39
2023-02-27T22:53:39.400Z,39.03
2023-02-27T22:56:24.960Z,38.81
2023-02-27T22:58:51.485Z,38.93
2023-02-27T23:01:25.957Z,38.83
2023-02-27T23:03:55.475Z,39.02
2023-02-27T23:06:25.066Z,39.11
2023-02-27T23:08:54.674Z,38.79
2023-02-27T23:11:21.699Z,38.85
2023-02-27T23:13:48.849Z,38.82
2023-02-27T23:16:15.560Z,39.12
2023-02-27T23:18:49.023Z,39.00
2023-02-27T23:21:19.852Z,38.97
2023-02-27T23:23:47.807Z,38.88
2023-02-27T23:26:14.670Z,38.88
2023-02-27T23:28:41.333Z,39.02
2023-02-27T23:31:08.593Z,38.93
2023-02-27T23:33:35.654Z,39.00
2023-02-27T23:36:02.888Z,39.16
2023-02-27T23:38:30.098Z,39.06
2023-02-27T23:40:56.632Z,38.90
2023-02-27T23:43:42.308Z,38.83
2023-02-27T23:46:10.473Z,39.28
2023-02-27T23:48:37.423Z,39.25
2023-02-27T23:51:06.088Z,39.13
2023-02-27T23:53:34.358Z,39.18
2023-02-27T23:56:00.996Z,39.21
2023-02-27T23:58:28.335Z,39.16
